Time;durP1;ratioP1;P1;durP2;ratioP2;P2;SDS_P1;SDS_P2;PMS_P1;PMS_P2;Temp;Humidity;BMP_temperature;BMP_pressure;BME280_temperature;BME280_humidity;BME280_pressure;Samples;Min_cycle;Max_cycle;Signal;HPM_P1;HPM_P2
2022/01/02 00:02:28;;;;;;;33.10;20.65;;;;;;;0.61;100.00;96623.75;6151720;22;20440;-69
2022/01/02 00:05:01;;;;;;;36.58;22.05;;;;;;;0.61;100.00;96620.31;6177931;23;20005;-69
2022/01/02 00:07:30;;;;;;;35.83;21.30;;;;;;;0.56;100.00;96621.34;6146884;23;20013;-67
2022/01/02 00:09:59;;;;;;;38.33;23.45;;;;;;;0.54;100.00;96612.75;6147640;23;20015;-68
2022/01/02 00:12:28;;;;;;;45.42;24.40;;;;;;;0.54;100.00;96610.16;6147458;23;20033;-66
2022/01/02 00:14:55;;;;;;;38.33;23.67;;;;;;;0.61;100.00;96607.38;6148119;23;20040;-66
2022/01/02 00:17:23;;;;;;;50.65;28.65;;;;;;;0.63;100.00;96606.38;6148025;23;20402;-66
2022/01/02 00:19:55;;;;;;;44.00;25.63;;;;;;;0.61;100.00;96602.19;6147798;23;20013;-67
2022/01/02 00:22:36;;;;;;;39.60;23.60;;;;;;;0.57;100.00;96580.72;6147699;23;20006;-66
2022/01/02 00:25:06;;;;;;;41.80;23.70;;;;;;;0.51;100.00;96594.72;6147838;23;20010;-68
2022/01/02 00:27:35;;;;;;;37.95;22.98;;;;;;;0.49;100.00;96583.59;6147586;23;20096;-67
2022/01/02 00:30:03;;;;;;;31.67;19.80;;;;;;;0.49;100.00;96580.16;6121498;23;20037;-68
2022/01/02 00:32:31;;;;;;;37.00;21.58;;;;;;;0.52;100.00;96586.06;6148978;23;20109;-68
2022/01/02 00:34:59;;;;;;;32.97;19.17;;;;;;;0.52;100.00;96578.28;6148946;23;20006;-66
2022/01/02 00:37:25;;;;;;;28.98;17.73;;;;;;;0.53;100.00;96579.97;6148327;23;20006;-67
2022/01/02 00:39:50;;;;;;;35.67;18.80;;;;;;;0.51;100.00;96583.53;6148607;23;20036;-67
2022/01/02 00:42:28;;;;;;;26.95;16.17;;;;;;;0.50;100.00;96587.88;6149150;23;20002;-67
2022/01/02 00:45:03;;;;;;;30.70;18.65;;;;;;;0.45;100.00;96588.97;6148950;23;20051;-67
2022/01/02 00:47:32;;;;;;;33.63;20.17;;;;;;;0.43;100.00;96584.66;6148509;23;20008;-67
2022/01/02 00:50:06;;;;;;;37.90;19.95;;;;;;;0.46;100.00;96573.34;6149232;23;20013;-67
2022/01/02 00:52:37;;;;;;;37.80;22.63;;;;;;;0.50;100.00;96574.91;6123087;23;20055;-67
2022/01/02 00:55:06;;;;;;;41.03;22.20;;;;;;;0.53;100.00;96572.19;6149264;23;20001;-67
2022/01/02 00:57:37;;;;;;;39.47;20.92;;;;;;;0.51;100.00;96579.19;6148288;23;20021;-67
2022/01/02 01:00:08;;;;;;;29.13;19.83;;;;;;;0.51;100.00;96575.75;6148951;23;20028;-67
2022/01/02 01:02:41;;;;;;;30.50;19.45;;;;;;;0.50;100.00;96587.03;6149006;23;20215;-67
2022/01/02 01:05:07;;;;;;;31.00;20.08;;;;;;;0.48;100.00;96584.50;6123453;23;20001;-67
2022/01/02 01:07:34;;;;;;;27.83;18.80;;;;;;;0.48;100.00;96584.50;6178689;23;20007;-67
2022/01/02 01:10:02;;;;;;;28.27;18.15;;;;;;;0.49;100.00;96586.19;6178411;22;20020;-67
2022/01/02 01:12:29;;;;;;;26.83;17.42;;;;;;;0.57;100.00;96570.34;6178399;23;20767;-67
2022/01/02 01:14:54;;;;;;;23.48;15.85;;;;;;;0.50;100.00;96574.91;6178616;23;20001;-67
2022/01/02 01:17:20;;;;;;;25.50;17.25;;;;;;;0.50;100.00;96571.50;6178138;23;20013;-67
2022/01/02 01:19:46;;;;;;;24.48;16.80;;;;;;;0.42;100.00;96576.94;6152322;22;20075;-67
2022/01/02 01:22:11;;;;;;;25.85;16.23;;;;;;;0.36;100.00;96579.78;6176723;23;20005;-67
2022/01/02 01:24:37;;;;;;;29.75;17.48;;;;;;;0.32;100.00;96579.03;6178287;23;20001;-67
2022/01/02 01:27:05;;;;;;;24.42;16.10;;;;;;;0.30;100.00;96577.41;6177928;23;20005;-67
2022/01/02 01:29:34;;;;;;;24.52;16.35;;;;;;;0.26;100.00;96574.94;6177557;23;20005;-67
2022/01/02 01:32:09;;;;;;;27.20;15.32;;;;;;;0.28;100.00;96580.06;6177872;23;20529;-67
2022/01/02 01:34:35;;;;;;;22.27;14.38;;;;;;;0.32;100.00;96576.44;6178417;23;20320;-67
2022/01/02 01:37:01;;;;;;;20.58;15.00;;;;;;;0.29;100.00;96573.97;6152063;23;20062;-67
2022/01/02 01:39:26;;;;;;;25.17;16.48;;;;;;;0.24;100.00;96584.50;6178517;23;20002;-67
2022/01/02 01:41:54;;;;;;;23.95;16.00;;;;;;;0.21;100.00;96581.16;6177864;23;20440;-67
2022/01/02 01:44:28;;;;;;;23.05;14.73;;;;;;;0.16;100.00;96577.91;6177906;23;20504;-67
2022/01/02 01:46:55;;;;;;;23.38;15.07;;;;;;;0.10;100.00;96586.75;6178072;23;20005;-67
2022/01/02 01:49:27;;;;;;;17.35;13.93;;;;;;;0.08;100.00;96575.59;6178581;22;20013;-67
2022/01/02 01:51:53;;;;;;;20.83;14.25;;;;;;;0.09;100.00;96580.72;6178309;23;20054;-67
2022/01/02 01:54:20;;;;;;;19.95;13.05;;;;;;;0.11;100.00;96578.94;6178325;23;19997;-67
2022/01/02 01:56:46;;;;;;;18.08;12.68;;;;;;;0.11;100.00;96573.75;6178078;23;20379;-67
2022/01/02 01:59:13;;;;;;;17.58;11.70;;;;;;;0.08;100.00;96578.19;6178410;23;20075;-67
2022/01/02 02:01:39;;;;;;;17.30;11.73;;;;;;;0.05;100.00;96567.94;6178042;23;20009;-68
2022/01/02 02:04:04;;;;;;;19.60;12.63;;;;;;;0.01;100.00;96571.56;6178325;23;20436;-67
2022/01/02 02:06:31;;;;;;;19.15;11.13;;;;;;;-0.02;100.00;96578.53;6178301;23;20457;-67
2022/01/02 02:08:59;;;;;;;15.02;10.32;;;;;;;-0.04;100.00;96569.97;6178636;23;20123;-67
2022/01/02 02:11:27;;;;;;;14.20;10.70;;;;;;;-0.07;100.00;96572.69;6178266;23;20005;-67
2022/01/02 02:13:54;;;;;;;13.43;9.85;;;;;;;-0.10;100.00;96559.84;6178527;23;20500;-67
2022/01/02 02:16:19;;;;;;;16.63;10.13;;;;;;;-0.07;100.00;96570.09;6178086;23;20395;-67
2022/01/02 02:18:45;;;;;;;11.45;8.38;;;;;;;-0.06;100.00;96566.59;6178056;23;20035;-67
2022/01/02 02:21:10;;;;;;;11.90;9.77;;;;;;;-0.03;100.00;96555.28;6178409;23;20441;-67
2022/01/02 02:23:35;;;;;;;11.52;8.73;;;;;;;-0.11;100.00;96549.53;6177997;23;20406;-67
2022/01/02 02:26:01;;;;;;;11.18;7.68;;;;;;;-0.13;100.00;96543.56;6178653;23;20080;-67
2022/01/02 02:28:27;;;;;;;9.55;7.38;;;;;;;-0.10;100.00;96541.72;6177950;23;20463;-67
2022/01/02 02:30:54;;;;;;;9.15;7.30;;;;;;;-0.05;100.00;96539.81;6151664;23;20097;-67
2022/01/02 02:33:20;;;;;;;9.88;7.00;;;;;;;0.03;100.00;96533.50;6178382;23;20031;-67
2022/01/02 02:35:47;;;;;;;7.13;6.38;;;;;;;0.15;100.00;96535.66;6177996;23;20343;-67
2022/01/02 02:38:15;;;;;;;55.15;25.75;;;;;;;0.18;100.00;96532.94;6178159;23;20074;-67
2022/01/02 02:40:42;;;;;;;24.42;12.30;;;;;;;0.19;100.00;96536.34;6151747;23;20033;-67
2022/01/02 02:51:30;;;;;;;14.90;9.48;;;;;;;0.18;100.00;96530.34;6177786;23;20017;-67
2022/01/02 02:53:55;;;;;;;14.70;8.95;;;;;;;0.21;100.00;96526.78;6178242;23;20603;-67
2022/01/02 02:56:42;;;;;;;12.73;8.75;;;;;;;0.21;100.00;96527.63;6178168;23;20098;-67
2022/01/02 02:59:10;;;;;;;16.27;8.18;;;;;;;0.18;100.00;96526.91;6178460;23;20492;-67
2022/01/02 03:01:36;;;;;;;15.65;9.75;;;;;;;0.10;100.00;96530.63;6178153;23;20009;-68
2022/01/02 03:04:02;;;;;;;15.00;8.55;;;;;;;0.04;100.00;96532.59;6178152;23;20016;-67
2022/01/02 03:06:28;;;;;;;11.35;8.63;;;;;;;0.02;100.00;96532.66;6177440;22;20361;-68
2022/01/02 03:08:53;;;;;;;11.82;7.75;;;;;;;0.02;100.00;96531.81;6178171;23;20011;-67
2022/01/02 03:11:21;;;;;;;11.45;7.53;;;;;;;0.04;100.00;96535.19;6177787;23;20005;-67
2022/01/02 03:13:49;;;;;;;12.73;7.82;;;;;;;0.03;100.00;96541.25;6178087;23;20008;-67
2022/01/02 03:16:15;;;;;;;14.77;7.68;;;;;;;0.03;100.00;96541.25;6151572;22;20359;-67
2022/01/02 03:18:41;;;;;;;14.15;8.07;;;;;;;-0.04;100.00;96544.09;6177441;23;20012;-71
2022/01/02 03:21:08;;;;;;;12.15;8.20;;;;;;;-0.09;100.00;96539.97;6177896;23;20337;-67
2022/01/02 03:23:34;;;;;;;11.18;7.93;;;;;;;-0.15;100.00;96543.63;6177604;23;20074;-67
2022/01/02 03:25:59;;;;;;;14.77;9.63;;;;;;;-0.17;100.00;96548.88;6178083;23;20012;-67
2022/01/02 03:28:25;;;;;;;12.40;8.48;;;;;;;-0.17;100.00;96545.41;6177326;23;20556;-67
2022/01/02 03:30:50;;;;;;;14.27;9.35;;;;;;;-0.18;100.00;96543.72;6151319;23;20016;-67
2022/01/02 03:33:15;;;;;;;12.45;7.68;;;;;;;-0.18;100.00;96554.09;6177843;23;20429;-67
2022/01/02 03:35:42;;;;;;;10.45;6.80;;;;;;;-0.17;100.00;96548.00;6177739;23;20020;-68
2022/01/02 03:38:08;;;;;;;10.73;7.20;;;;;;;-0.17;100.00;96548.88;6177530;23;20039;-67
2022/01/02 03:40:33;;;;;;;11.88;8.70;;;;;;;-0.14;100.00;96547.88;6177336;23;20020;-67
2022/01/02 03:42:59;;;;;;;13.93;10.20;;;;;;;-0.08;100.00;96554.59;6177856;23;20005;-67
2022/01/02 03:45:24;;;;;;;14.93;9.32;;;;;;;-0.11;100.00;96547.81;6177165;23;20011;-68
2022/01/02 03:47:50;;;;;;;12.20;7.82;;;;;;;-0.11;100.00;96547.81;6177933;23;20005;-67
2022/01/02 03:50:16;;;;;;;11.27;8.65;;;;;;;-0.15;100.00;96551.38;6177305;23;20015;-67
2022/01/02 03:52:42;;;;;;;13.18;8.80;;;;;;;-0.20;100.00;96554.16;6177902;22;20013;-67
2022/01/02 03:55:08;;;;;;;9.60;6.80;;;;;;;-0.24;100.00;96546.53;6177840;23;19998;-67
2022/01/02 03:57:34;;;;;;;8.07;6.10;;;;;;;-0.25;100.00;96539.69;6177513;23;20001;-67
2022/01/02 04:00:00;;;;;;;9.68;6.43;;;;;;;-0.23;100.00;96540.47;6177911;23;20103;-68
2022/01/02 04:02:26;;;;;;;7.07;5.82;;;;;;;-0.27;100.00;96526.78;6177680;23;20530;-67
2022/01/02 04:04:51;;;;;;;10.63;7.97;;;;;;;-0.29;100.00;96515.66;6177397;23;20002;-68
2022/01/02 04:07:16;;;;;;;12.10;9.15;;;;;;;-0.30;100.00;96517.41;6176922;23;20498;-67
2022/01/02 04:09:42;;;;;;;11.55;8.52;;;;;;;-0.26;100.00;96512.13;6177286;23;20009;-67
2022/01/02 04:12:08;;;;;;;12.20;8.95;;;;;;;-0.17;100.00;96511.75;6177586;23;20005;-68
2022/01/02 04:14:33;;;;;;;12.13;8.80;;;;;;;-0.18;100.00;96510.94;6177754;23;20034;-67
2022/01/02 04:16:59;;;;;;;11.00;8.10;;;;;;;-0.24;100.00;96498.19;6177631;23;20510;-67
2022/01/02 04:19:24;;;;;;;12.15;8.65;;;;;;;-0.11;100.00;96506.38;6177249;23;20013;-67
2022/01/02 04:21:50;;;;;;;12.20;6.97;;;;;;;0.08;100.00;96503.09;6177425;23;20087;-67
2022/01/02 04:24:15;;;;;;;11.65;7.00;;;;;;;-0.02;100.00;96507.75;6178384;23;20440;-67
2022/01/02 04:26:41;;;;;;;10.88;7.20;;;;;;;-0.02;100.00;96507.75;6176860;23;20013;-68
2022/01/02 04:29:06;;;;;;;11.55;7.95;;;;;;;-0.02;100.00;96500.00;6177615;23;20013;-68
2022/01/02 04:31:32;;;;;;;11.10;7.78;;;;;;;-0.09;100.00;96490.78;6177359;23;20013;-67
2022/01/02 04:33:57;;;;;;;13.30;8.02;;;;;;;-0.19;100.00;96485.09;6177575;23;20353;-67
2022/01/02 04:36:23;;;;;;;11.57;6.95;;;;;;;-0.24;100.00;96476.66;6177291;23;20005;-67
2022/01/02 04:38:49;;;;;;;12.60;6.45;;;;;;;-0.21;100.00;96467.06;6177341;23;20067;-68
2022/01/02 04:41:14;;;;;;;10.27;7.57;;;;;;;-0.16;100.00;96470.31;6177441;23;20445;-67
2022/01/02 04:43:40;;;;;;;10.23;6.70;;;;;;;-0.09;100.00;96467.47;6177529;23;20030;-68
2022/01/02 04:46:05;;;;;;;9.70;6.50;;;;;;;-0.08;100.00;96469.16;6176665;23;20001;-68
2022/01/02 04:48:31;;;;;;;9.95;6.78;;;;;;;-0.14;100.00;96475.41;6177340;23;20016;-67
2022/01/02 04:50:56;;;;;;;11.95;5.90;;;;;;;-0.23;100.00;96478.34;6177734;23;20005;-67
2022/01/02 04:53:22;;;;;;;10.18;6.30;;;;;;;-0.28;100.00;96477.69;6177176;23;20009;-68
2022/01/02 04:55:48;;;;;;;12.52;8.38;;;;;;;-0.35;100.00;96483.06;6177329;23;20008;-67
2022/01/02 04:58:14;;;;;;;13.82;10.20;;;;;;;-0.32;100.00;96482.97;6177049;23;20062;-67
2022/01/02 05:00:39;;;;;;;10.82;8.70;;;;;;;-0.29;100.00;96487.19;6177042;23;20013;-67
2022/01/02 05:03:05;;;;;;;11.90;8.48;;;;;;;-0.33;100.00;96491.63;6177289;23;20094;-67
2022/01/02 05:05:30;;;;;;;9.65;7.93;;;;;;;-0.35;100.00;96492.59;6176712;23;20013;-67
2022/01/02 05:07:56;;;;;;;9.48;7.32;;;;;;;-0.32;100.00;96501.09;6177234;23;20008;-68
2022/01/02 05:10:21;;;;;;;11.23;8.48;;;;;;;-0.31;100.00;96513.13;6176920;23;20040;-67
2022/01/02 05:12:46;;;;;;;11.75;8.70;;;;;;;-0.27;100.00;96520.78;6177064;23;20086;-68
2022/01/02 05:15:12;;;;;;;10.35;7.82;;;;;;;-0.33;100.00;96533.03;6176973;23;20425;-68
2022/01/02 05:17:37;;;;;;;12.35;8.00;;;;;;;-0.35;100.00;96533.97;6177187;23;20012;-67
2022/01/02 05:20:04;;;;;;;7.25;6.03;;;;;;;-0.22;100.00;96531.81;6178576;23;20063;-68
2022/01/02 05:22:30;;;;;;;8.90;5.95;;;;;;;-0.29;100.00;96536.34;6178124;23;20005;-67
2022/01/02 05:24:55;;;;;;;8.63;6.65;;;;;;;-0.26;100.00;96549.19;6178125;23;20441;-67
2022/01/02 05:27:20;;;;;;;8.23;6.55;;;;;;;-0.35;100.00;96554.69;6178701;23;20005;-68
2022/01/02 05:29:46;;;;;;;8.75;6.40;;;;;;;-0.40;100.00;96556.59;6178283;23;20011;-68
2022/01/02 05:32:11;;;;;;;6.32;5.72;;;;;;;-0.35;100.00;96559.88;6178192;23;20129;-67
2022/01/02 05:34:36;;;;;;;7.32;6.20;;;;;;;-0.34;100.00;96564.13;6178291;23;20625;-67
2022/01/02 05:37:02;;;;;;;6.97;6.28;;;;;;;-0.28;100.00;96561.31;6178276;23;20001;-68
2022/01/02 05:39:28;;;;;;;7.40;5.93;;;;;;;-0.24;100.00;96564.66;6177748;23;20423;-67
2022/01/02 05:41:53;;;;;;;7.85;7.05;;;;;;;-0.17;100.00;96573.88;6178666;23;20467;-68
2022/01/02 05:44:19;;;;;;;7.75;6.15;;;;;;;-0.17;100.00;96573.88;6178478;23;20009;-68
2022/01/02 05:46:46;;;;;;;9.15;6.50;;;;;;;-0.20;100.00;96572.28;6178296;23;20009;-67
2022/01/02 05:49:12;;;;;;;6.78;6.07;;;;;;;-0.24;100.00;96562.06;6177626;23;20005;-68
2022/01/02 05:51:38;;;;;;;7.95;5.75;;;;;;;-0.35;100.00;96560.69;6177733;23;20009;-68
2022/01/02 05:54:04;;;;;;;6.05;5.45;;;;;;;-0.32;100.00;96557.16;6178174;23;20541;-67
2022/01/02 05:56:29;;;;;;;7.30;5.70;;;;;;;-0.23;100.00;96553.41;6178195;23;20424;-67
2022/01/02 05:58:55;;;;;;;6.13;5.53;;;;;;;-0.25;100.00;96542.28;6178029;23;20016;-67
2022/01/02 06:01:20;;;;;;;6.05;5.45;;;;;;;-0.33;100.00;96547.72;6178181;23;20079;-67
2022/01/02 06:03:46;;;;;;;6.97;6.28;;;;;;;-0.40;100.00;96541.91;6178408;23;20094;-68
2022/01/02 06:06:12;;;;;;;13.05;9.65;;;;;;;-0.40;100.00;96546.25;6177638;23;20009;-68
2022/01/02 06:08:37;;;;;;;11.43;8.85;;;;;;;-0.37;100.00;96552.13;6178008;23;20016;-68
2022/01/02 06:11:03;;;;;;;11.38;9.60;;;;;;;-0.27;100.00;96546.66;6178459;23;20009;-68
2022/01/02 06:13:29;;;;;;;11.02;8.88;;;;;;;-0.30;100.00;96538.09;6177801;23;20109;-68
2022/01/02 06:15:54;;;;;;;12.00;9.30;;;;;;;-0.31;100.00;96540.72;6178154;23;20127;-68
2022/01/02 06:18:20;;;;;;;17.05;10.73;;;;;;;-0.30;100.00;96540.69;6178057;23;20005;-68
2022/01/02 06:20:45;;;;;;;12.80;10.30;;;;;;;-0.23;100.00;96543.06;6178360;23;20001;-68
2022/01/02 06:23:11;;;;;;;8.48;7.63;;;;;;;-0.11;100.00;96540.03;6152029;23;20076;-68
2022/01/02 06:25:36;;;;;;;11.15;9.52;;;;;;;0.01;100.00;96530.13;6177586;23;20421;-68
2022/01/02 06:28:03;;;;;;;12.57;10.68;;;;;;;0.00;100.00;96544.84;6178147;23;20441;-68
2022/01/02 06:30:28;;;;;;;11.50;10.27;;;;;;;-0.07;100.00;96539.03;6178072;23;20020;-68
2022/01/02 06:32:56;;;;;;;10.88;9.07;;;;;;;-0.07;100.00;96528.66;6178488;23;20349;-68
2022/01/02 06:35:27;;;;;;;9.65;8.27;;;;;;;-0.04;100.00;96536.31;6178116;23;20387;-68
2022/01/02 06:37:53;;;;;;;9.50;8.48;;;;;;;-0.05;100.00;96534.63;6177809;23;20005;-68
2022/01/02 06:40:21;;;;;;;8.50;7.63;;;;;;;-0.15;100.00;96534.13;6178053;23;20459;-68
2022/01/02 06:42:46;;;;;;;9.52;8.57;;;;;;;-0.16;100.00;96528.97;6178105;23;20038;-68
2022/01/02 06:45:12;;;;;;;9.60;7.80;;;;;;;-0.13;100.00;96528.03;6176762;23;20005;-68
2022/01/02 06:47:37;;;;;;;9.07;8.18;;;;;;;-0.20;100.00;96528.28;6177930;23;20028;-67
2022/01/02 06:50:04;;;;;;;9.30;8.20;;;;;;;-0.19;100.00;96539.44;6178673;23;20062;-67
2022/01/02 06:52:30;;;;;;;12.85;8.68;;;;;;;-0.22;100.00;96539.56;6178085;22;20381;-67
2022/01/02 06:54:55;;;;;;;10.45;9.35;;;;;;;-0.27;100.00;96536.31;6178287;23;20005;-67
2022/01/02 06:57:21;;;;;;;10.98;9.88;;;;;;;-0.30;100.00;96535.53;6177922;23;20352;-67
2022/01/02 06:59:48;;;;;;;10.57;8.88;;;;;;;-0.28;100.00;96526.84;6178151;23;20005;-68
2022/01/02 07:02:13;;;;;;;10.10;9.20;;;;;;;-0.30;100.00;96526.91;6178266;23;20080;-68
2022/01/02 07:04:39;;;;;;;10.35;9.30;;;;;;;-0.34;100.00;96528.75;6176533;23;20084;-68
2022/01/02 07:07:04;;;;;;;12.90;9.38;;;;;;;-0.34;100.00;96531.31;6177765;23;20013;-67
2022/01/02 07:09:31;;;;;;;11.30;9.45;;;;;;;-0.28;100.00;96532.84;6177867;23;20314;-68
2022/01/02 07:11:57;;;;;;;9.57;8.40;;;;;;;-0.24;100.00;96538.78;6177853;23;20093;-67
2022/01/02 07:14:26;;;;;;;11.57;10.02;;;;;;;-0.32;100.00;96541.63;6177707;22;20001;-67
2022/01/02 07:16:52;;;;;;;11.75;10.55;;;;;;;-0.36;100.00;96543.47;6177568;23;20005;-67
2022/01/02 07:19:17;;;;;;;16.00;14.45;;;;;;;-0.38;100.00;96549.63;6177915;23;20012;-67
2022/01/02 07:21:43;;;;;;;15.88;14.30;;;;;;;-0.31;100.00;96559.72;6177405;23;20397;-67
2022/01/02 07:24:08;;;;;;;15.02;13.52;;;;;;;-0.26;100.00;96566.47;6177754;23;20001;-67
2022/01/02 07:26:34;;;;;;;14.75;13.27;;;;;;;-0.29;100.00;96564.81;6177836;23;20056;-67
2022/01/02 07:28:59;;;;;;;19.85;15.55;;;;;;;-0.26;100.00;96576.81;6177920;23;20009;-67
2022/01/02 07:31:24;;;;;;;26.52;21.77;;;;;;;-0.21;100.00;96578.34;6177618;23;20559;-67
2022/01/02 07:33:50;;;;;;;24.35;20.48;;;;;;;-0.15;100.00;96577.25;6177742;23;20028;-67
2022/01/02 07:36:15;;;;;;;27.77;21.60;;;;;;;-0.12;100.00;96576.31;6178491;23;20353;-68
2022/01/02 07:38:40;;;;;;;26.40;21.88;;;;;;;-0.07;100.00;96580.44;6177146;23;20046;-67
2022/01/02 07:41:06;;;;;;;22.63;19.80;;;;;;;-0.03;100.00;96571.66;6177034;23;20467;-68
2022/01/02 07:43:31;;;;;;;24.05;18.65;;;;;;;0.02;100.00;96570.66;6177442;23;20005;-67
2022/01/02 07:45:57;;;;;;;21.55;19.25;;;;;;;0.04;100.00;96574.03;6177377;23;20037;-67
2022/01/02 07:48:22;;;;;;;24.98;19.92;;;;;;;0.11;100.00;96565.13;6177135;23;20329;-68
2022/01/02 07:50:47;;;;;;;21.13;17.70;;;;;;;0.07;100.00;96572.19;6177301;23;20015;-68
2022/01/02 07:53:13;;;;;;;19.30;17.30;;;;;;;0.08;100.00;96567.81;6177287;23;20005;-67
2022/01/02 07:55:38;;;;;;;18.60;16.70;;;;;;;0.21;100.00;96574.25;6177474;23;20083;-67
2022/01/02 07:58:04;;;;;;;19.30;17.30;;;;;;;0.27;100.00;96581.78;6177351;23;20017;-67
2022/01/02 08:00:29;;;;;;;20.58;18.27;;;;;;;0.27;100.00;96574.03;6149566;23;20001;-67
2022/01/02 08:02:55;;;;;;;22.98;20.58;;;;;;;0.27;100.00;96584.38;6176380;23;20013;-67
2022/01/02 08:05:20;;;;;;;17.67;15.45;;;;;;;0.36;100.00;96592.75;6176889;23;20008;-68
2022/01/02 08:07:45;;;;;;;18.02;16.20;;;;;;;0.38;100.00;96590.94;6176832;23;20118;-69
2022/01/02 08:10:11;;;;;;;15.68;14.10;;;;;;;0.37;100.00;96586.66;6177545;23;20028;-66
2022/01/02 08:12:36;;;;;;;15.80;14.23;;;;;;;0.34;100.00;96584.19;6177273;23;20016;-67
2022/01/02 08:15:02;;;;;;;30.08;25.75;;;;;;;0.37;100.00;96584.06;6176771;23;20012;-65
2022/01/02 08:17:27;;;;;;;31.13;26.35;;;;;;;0.49;100.00;96587.94;6177124;23;20062;-70
2022/01/02 08:19:53;;;;;;;32.03;24.98;;;;;;;0.54;100.00;96579.06;6177806;23;20077;-67
2022/01/02 08:22:20;;;;;;;34.13;25.23;;;;;;;0.62;100.00;96577.94;6177390;23;20083;-68
2022/01/02 08:24:46;;;;;;;33.60;24.48;;;;;;;0.70;100.00;96565.53;6177016;23;20445;-70
2022/01/02 08:27:11;;;;;;;31.02;23.95;;;;;;;0.84;100.00;96568.44;6176793;23;20013;-68
2022/01/02 08:29:37;;;;;;;23.98;20.55;;;;;;;0.90;100.00;96569.09;6176742;23;20062;-69
2022/01/02 08:32:02;;;;;;;25.77;20.48;;;;;;;0.92;100.00;96570.72;6176012;23;20058;-70
2022/01/02 08:34:27;;;;;;;27.35;21.73;;;;;;;0.93;100.00;96575.00;6176698;23;20344;-67
2022/01/02 08:36:53;;;;;;;23.55;20.90;;;;;;;0.94;100.00;96583.63;6176729;23;20076;-69
2022/01/02 08:39:18;;;;;;;31.30;24.33;;;;;;;0.96;100.00;96587.00;6175961;23;20455;-71
2022/01/02 08:41:44;;;;;;;376.52;176.18;;;;;;;1.06;100.00;96592.66;6176314;23;20468;-67
2022/01/02 08:44:09;;;;;;;97.38;50.47;;;;;;;1.04;100.00;96608.28;6177075;23;20008;-55
2022/01/02 08:46:35;;;;;;;54.92;31.42;;;;;;;1.06;100.00;96609.06;6176624;23;20001;-57
2022/01/02 08:49:00;;;;;;;98.43;48.05;;;;;;;1.07;100.00;96626.31;6174031;23;20086;-53
2022/01/02 08:51:27;;;;;;;157.85;77.75;;;;;;;0.98;100.00;96637.91;6177031;23;20080;-57
2022/01/02 08:53:53;;;;;;;145.90;75.85;;;;;;;0.90;100.00;96649.47;6177604;23;20062;-57
2022/01/02 08:56:18;;;;;;;69.70;40.28;;;;;;;0.92;100.00;96651.13;6178347;23;20005;-57
2022/01/02 08:58:43;;;;;;;35.08;25.02;;;;;;;0.93;100.00;96665.75;6178174;23;20084;-58
2022/01/02 09:01:09;;;;;;;21.70;17.88;;;;;;;0.99;100.00;96667.25;6178700;23;20005;-58
2022/01/02 09:03:34;;;;;;;22.10;19.67;;;;;;;1.08;100.00;96669.50;6178041;23;20013;-57
2022/01/02 09:06:00;;;;;;;21.20;17.38;;;;;;;1.08;100.00;96661.72;6178329;23;20361;-59
2022/01/02 09:08:25;;;;;;;21.10;16.40;;;;;;;1.13;100.00;96674.53;6177775;23;20005;-55
2022/01/02 09:10:51;;;;;;;15.43;13.73;;;;;;;1.25;100.00;96666.25;6177859;23;20036;-52
2022/01/02 09:13:16;;;;;;;15.90;14.15;;;;;;;1.38;100.00;96663.19;6178353;23;20353;-53
2022/01/02 09:15:42;;;;;;;17.33;15.50;;;;;;;1.52;100.00;96658.25;6152164;23;20386;-58
2022/01/02 09:18:07;;;;;;;16.67;14.93;;;;;;;1.65;100.00;96661.19;6178343;23;20450;-55
2022/01/02 09:20:33;;;;;;;15.45;13.82;;;;;;;1.75;100.00;96655.63;6176939;23;20400;-56
2022/01/02 09:22:59;;;;;;;14.77;13.32;;;;;;;1.85;100.00;96656.94;6177827;23;20051;-56
2022/01/02 09:25:24;;;;;;;15.45;13.85;;;;;;;1.91;100.00;96651.50;6177353;23;20009;-57
2022/01/02 09:27:50;;;;;;;20.08;15.43;;;;;;;2.30;100.00;96649.84;6174906;23;20001;-57
2022/01/02 09:30:15;;;;;;;21.98;19.67;;;;;;;2.42;100.00;96653.66;6178129;23;20448;-53
2022/01/02 09:32:41;;;;;;;22.17;17.92;;;;;;;2.50;100.00;96651.53;6152036;23;20016;-54
2022/01/02 09:35:09;;;;;;;18.98;16.08;;;;;;;2.56;100.00;96637.44;6178447;23;20009;-57
2022/01/02 09:37:34;;;;;;;19.25;16.92;;;;;;;2.64;100.00;96634.50;6177882;23;20005;-56
2022/01/02 09:40:02;;;;;;;21.10;17.92;;;;;;;2.94;100.00;96621.84;6178179;23;20015;-57
2022/01/02 09:42:28;;;;;;;32.25;24.20;;;;;;;3.64;100.00;96615.06;6177848;23;20004;-53
2022/01/02 09:44:54;;;;;;;29.48;23.45;;;;;;;4.12;97.22;96617.84;6178083;23;20505;-57
2022/01/02 09:47:21;;;;;;;24.60;18.35;;;;;;;4.54;96.03;96616.53;6178565;23;20001;-55
2022/01/02 09:49:48;;;;;;;22.08;17.20;;;;;;;4.96;93.89;96618.63;6178296;23;20345;-57
2022/01/02 09:52:16;;;;;;;22.60;16.23;;;;;;;5.34;93.24;96631.34;6178449;23;20429;-55
2022/01/02 09:54:42;;;;;;;21.40;15.98;;;;;;;5.86;94.38;96639.75;6178244;23;20005;-57
2022/01/02 09:57:08;;;;;;;21.83;15.95;;;;;;;6.33;91.57;96660.59;6178390;23;20012;-60
2022/01/02 09:59:33;;;;;;;20.95;16.42;;;;;;;6.72;91.24;96656.47;6177726;23;20005;-63
2022/01/02 10:02:03;;;;;;;21.58;15.63;;;;;;;7.09;90.51;96643.72;6176970;23;20005;-59
2022/01/02 10:04:42;;;;;;;15.88;12.88;;;;;;;7.17;89.26;96617.03;6177412;23;20059;-60
2022/01/02 10:07:26;;;;;;;10.00;9.10;;;;;;;7.11;87.94;96607.78;6177804;23;20073;-53
2022/01/02 10:09:52;;;;;;;8.93;8.02;;;;;;;7.03;88.77;96586.50;6177504;23;20009;-57
2022/01/02 10:12:22;;;;;;;14.35;10.63;;;;;;;6.81;86.17;96582.63;6178242;23;20008;-51
2022/01/02 10:15:05;;;;;;;5.95;5.43;;;;;;;7.06;85.80;96588.06;6177076;23;20005;-55
2022/01/02 10:17:50;;;;;;;6.20;5.10;;;;;;;7.17;85.32;96602.16;6176314;23;20021;-55
2022/01/02 10:20:15;;;;;;;5.28;4.78;;;;;;;7.20;81.19;96610.78;6177038;23;20032;-58
2022/01/02 10:23:07;;;;;;;7.72;6.97;;;;;;;7.42;82.89;96625.94;6176497;23;20433;-58
2022/01/02 10:25:44;;;;;;;7.88;7.05;;;;;;;7.73;81.06;96637.03;6174925;23;20357;-59
2022/01/02 10:28:21;;;;;;;10.20;8.32;;;;;;;8.15;75.68;96642.16;6176186;23;20704;-58
2022/01/02 10:30:49;;;;;;;6.70;6.10;;;;;;;8.51;75.65;96642.41;6177045;23;20061;-59
2022/01/02 10:33:15;;;;;;;7.95;6.85;;;;;;;8.86;75.51;96655.69;6176384;22;20088;-58
2022/01/02 10:35:41;;;;;;;7.40;6.70;;;;;;;9.05;74.46;96646.53;6177088;22;20341;-58
2022/01/02 10:38:06;;;;;;;5.97;5.47;;;;;;;9.20;73.93;96649.03;6177322;23;20005;-58
2022/01/02 10:40:35;;;;;;;6.47;5.88;;;;;;;9.39;73.26;96641.47;6150363;22;20314;-58
2022/01/02 10:43:03;;;;;;;5.82;5.28;;;;;;;9.57;70.38;96638.44;6177364;23;20089;-58
2022/01/02 10:45:39;;;;;;;4.82;4.43;;;;;;;9.64;69.13;96644.97;6177367;23;20439;-58
2022/01/02 10:48:09;;;;;;;4.05;3.60;;;;;;;9.76;65.24;96627.44;6177207;23;20010;-58
2022/01/02 10:50:35;;;;;;;5.00;4.43;;;;;;;9.68;62.99;96621.88;6177260;23;20078;-58
2022/01/02 10:53:15;;;;;;;4.15;3.75;;;;;;;9.58;62.92;96613.84;6177044;23;20001;-59
2022/01/02 10:55:46;;;;;;;4.43;4.03;;;;;;;9.49;62.51;96607.47;6177531;23;20437;-58
2022/01/02 10:58:12;;;;;;;5.60;4.97;;;;;;;9.19;65.77;96603.50;6176584;23;20005;-58
2022/01/02 11:00:39;;;;;;;6.53;5.68;;;;;;;8.90;67.96;96601.19;6149425;23;20092;-58
2022/01/02 11:03:06;;;;;;;8.52;7.15;;;;;;;9.28;66.24;96592.34;6175860;23;20005;-59
2022/01/02 11:05:35;;;;;;;6.13;4.60;;;;;;;9.70;64.21;96580.53;6177218;23;20069;-54
2022/01/02 11:08:02;;;;;;;7.43;4.63;;;;;;;9.98;62.73;96579.31;6177191;23;20009;-57
2022/01/02 11:10:30;;;;;;;9.80;7.50;;;;;;;10.18;64.42;96574.31;6175163;23;20017;-57
2022/01/02 11:12:56;;;;;;;6.85;4.45;;;;;;;10.33;63.12;96561.75;6150218;23;20352;-59
2022/01/02 11:15:25;;;;;;;4.05;3.65;;;;;;;10.42;62.19;96561.09;6176755;23;20011;-58
2022/01/02 11:17:51;;;;;;;5.40;4.15;;;;;;;10.53;61.83;96554.13;6177345;23;20080;-57
2022/01/02 11:20:32;;;;;;;4.03;3.63;;;;;;;10.65;61.06;96560.22;6176662;23;20001;-58
2022/01/02 11:23:03;;;;;;;5.50;5.00;;;;;;;10.73;61.21;96556.03;6178103;23;20050;-58
2022/01/02 11:25:31;;;;;;;3.67;3.20;;;;;;;10.98;55.09;96553.25;6177554;23;20073;-58
2022/01/02 11:28:00;;;;;;;3.72;3.42;;;;;;;10.85;58.05;96551.59;6177271;23;20013;-56
2022/01/02 11:30:28;;;;;;;4.57;4.18;;;;;;;11.05;55.90;96557.06;6176130;23;20013;-57